| time (UTC) | temp F | wind direction | speed knots | gust knots | rain 1hr in | rain 24hr in | rain mn in | humidity % | barometer mb |
| 20260504160142 | 74 | 248 | 8.7 | 15.6 | 0.00 | 0.00 | 0.00 | 27 | 1001.4 |
| 20260504150925 | 71 | 209 | 7.0 | 13.9 | 0.00 | 0.00 | 0.00 | 33 | 1002.3 |
| 20260504150424 | 70 | 223 | 7.0 | 13.0 | 0.00 | 0.00 | 0.00 | 35 | 1002.2 |
| 20260504141229 | 62 | 176 | 5.2 | 11.3 | 0.00 | 0.00 | 0.00 | 43 | 1002.9 |
| 20260504140706 | 62 | 195 | 6.1 | 11.3 | 0.00 | 0.00 | 0.00 | 41 | 1003.0 |
| 20260504140200 | 61 | 231 | 6.1 | 11.3 | 0.00 | 0.00 | 0.00 | 42 | 1003.1 |
| 20260504120210 | 48 | 162 | 5.2 | 11.3 | 0.00 | 0.02 | 0.00 | 58 | 1003.8 |
| 20260504110431 | 47 | 176 | 5.2 | 7.8 | 0.00 | 0.02 | 0.00 | 55 | 1003.7 |
| 20260504100112 | 48 | 127 | 3.5 | 6.1 | 0.00 | 0.02 | 0.00 | 54 | 1004.2 |
| 20260504081551 | 51 | 196 | 2.6 | 6.1 | 0.00 | 0.02 | 0.00 | 49 | 1004.3 |
| 20260504081517 | 50 | 173 | 2.6 | 6.1 | 0.00 | 0.02 | 0.00 | 49 | 1005.1 |
| 20260504080519 | 51 | 216 | 3.5 | 6.1 | 0.00 | 0.02 | 0.00 | 49 | 1004.4 |
| 20260504050251 | 55 | 226 | 2.6 | 5.2 | 0.00 | 0.02 | 0.00 | 45 | 1006.2 |
| 20260504050012 | 55 | 193 | 2.6 | 5.2 | 0.00 | 0.02 | 0.00 | 45 | 1006.9 |
| 20260504045732 | 55 | 220 | 2.6 | 5.2 | 0.00 | 0.02 | 0.02 | 45 | 1006.2 |
| 20260504045226 | 55 | 202 | 3.5 | 5.2 | 0.00 | 0.02 | 0.02 | 45 | 1006.2 |
| 20260504044702 | 56 | 226 | 2.6 | 5.2 | 0.00 | 0.02 | 0.02 | 45 | 1006.2 |
| 20260504044510 | 55 | 215 | 1.7 | 6.1 | 0.00 | 0.02 | 0.02 | 45 | 1006.9 |
| 20260504043632 | 56 | 231 | 2.6 | 7.8 | 0.00 | 0.02 | 0.02 | 45 | 1006.2 |
| 20260504043131 | 56 | 223 | 3.5 | 7.8 | 0.00 | 0.02 | 0.02 | 45 | 1006.2 |
| 20260504043010 | 55 | 234 | 2.6 | 7.8 | 0.00 | 0.02 | 0.02 | 45 | 1006.9 |
| 20260504042601 | 56 | 189 | 3.5 | 7.0 | 0.00 | 0.02 | 0.02 | 46 | 1006.2 |
| 20260504042101 | 56 | 231 | 3.5 | 6.1 | 0.00 | 0.02 | 0.02 | 46 | 1006.2 |
| 20260504041601 | 56 | 226 | 3.5 | 7.8 | 0.00 | 0.02 | 0.02 | 46 | 1006.1 |
| 20260504041504 | 55 | 195 | 2.6 | 7.8 | 0.00 | 0.02 | 0.02 | 45 | 1006.9 |
| 20260504041103 | 56 | 173 | 3.5 | 7.8 | 0.00 | 0.02 | 0.02 | 46 | 1006.1 |
| 20260504040539 | 56 | 213 | 4.3 | 8.7 | 0.00 | 0.02 | 0.02 | 46 | 1006.1 |
| 20260504040015 | 55 | 187 | 3.5 | 8.7 | 0.00 | 0.02 | 0.02 | 45 | 1006.9 |
| 20260504040009 | 56 | 198 | 4.3 | 8.7 | 0.00 | 0.02 | 0.02 | 46 | 1006.1 |
| 20260504035500 | 56 | 207 | 3.5 | 7.0 | 0.00 | 0.02 | 0.02 | 46 | 1006.2 |
| 20260504035000 | 56 | 253 | 3.5 | 7.0 | 0.00 | 0.02 | 0.02 | 46 | 1006.2 |
| 20260504034516 | 56 | 221 | 2.6 | 8.7 | 0.00 | 0.02 | 0.02 | 45 | 1007.0 |
| 20260504034450 | 56 | 250 | 3.5 | 8.7 | 0.00 | 0.02 | 0.02 | 46 | 1006.2 |
| 20260504033420 | 57 | 187 | 3.5 | 7.0 | 0.00 | 0.02 | 0.02 | 46 | 1006.3 |
| 20260504033004 | 56 | 214 | 4.3 | 7.0 | 0.00 | 0.02 | 0.02 | 45 | 1007.1 |
| 20260504032919 | 57 | 211 | 3.5 | 7.0 | 0.00 | 0.02 | 0.02 | 45 | 1006.3 |
| 20260504032351 | 57 | 236 | 3.5 | 7.0 | 0.00 | 0.02 | 0.02 | 45 | 1006.3 |
| 20260504031843 | 57 | 225 | 3.5 | 7.0 | 0.00 | 0.02 | 0.02 | 45 | 1006.3 |
| 20260504031511 | 57 | 190 | 4.3 | 7.8 | 0.00 | 0.02 | 0.02 | 45 | 1007.0 |
| 20260504031321 | 57 | 216 | 3.5 | 7.8 | 0.00 | 0.02 | 0.02 | 45 | 1006.2 |
| 20260504030819 | 57 | 137 | 3.5 | 7.8 | 0.00 | 0.02 | 0.02 | 45 | 1006.2 |
| 20260504030305 | 57 | 187 | 3.5 | 8.7 | 0.00 | 0.02 | 0.02 | 45 | 1006.2 |
| 20260504030008 | 57 | 191 | 2.6 | 8.7 | 0.00 | 0.02 | 0.02 | 45 | 1007.0 |
| 20260504025806 | 58 | 203 | 3.5 | 8.7 | 0.00 | 0.02 | 0.02 | 45 | 1006.2 |
| 20260504025245 | 58 | 212 | 3.5 | 7.8 | 0.00 | 0.02 | 0.02 | 45 | 1006.3 |
| 20260504024747 | 58 | 218 | 3.5 | 6.1 | 0.00 | 0.02 | 0.02 | 45 | 1006.2 |
| 20260504024506 | 57 | 202 | 3.5 | 7.0 | 0.00 | 0.02 | 0.02 | 44 | 1007.0 |
| 20260504024233 | 58 | 194 | 3.5 | 7.0 | 0.00 | 0.02 | 0.02 | 45 | 1006.2 |
| 20260504023731 | 58 | 218 | 2.6 | 6.1 | 0.00 | 0.02 | 0.02 | 44 | 1006.2 |
| 20260504023215 | 58 | 194 | 2.6 | 6.1 | 0.00 | 0.02 | 0.02 | 44 | 1006.2 |
| 20260504023020 | 58 | 162 | 2.6 | 6.1 | 0.00 | 0.02 | 0.02 | 44 | 1006.9 |
| 20260504022715 | 59 | 174 | 3.5 | 6.1 | 0.00 | 0.02 | 0.02 | 44 | 1006.1 |
| 20260504022217 | 59 | 151 | 3.5 | 7.0 | 0.00 | 0.02 | 0.02 | 44 | 1006.0 |
| 20260504021509 | 59 | 225 | 3.5 | 7.8 | 0.00 | 0.02 | 0.02 | 43 | 1006.7 |
| 20260504021138 | 59 | 164 | 3.5 | 7.0 | 0.00 | 0.02 | 0.02 | 44 | 1005.9 |
| 20260504020637 | 60 | 182 | 3.5 | 7.0 | 0.00 | 0.02 | 0.02 | 43 | 1005.9 |
| 20260504020108 | 60 | 183 | 3.5 | 7.8 | 0.00 | 0.02 | 0.02 | 43 | 1005.9 |
| 20260504020007 | 60 | 178 | 2.6 | 7.8 | 0.00 | 0.02 | 0.02 | 43 | 1006.6 |
| 20260504015607 | 60 | 159 | 3.5 | 7.8 | 0.00 | 0.02 | 0.02 | 43 | 1005.8 |
| 20260504015039 | 61 | 182 | 3.5 | 8.7 | 0.00 | 0.02 | 0.02 | 43 | 1005.8 |
| 20260504014534 | 61 | 167 | 3.5 | 8.7 | 0.00 | 0.02 | 0.02 | 42 | 1005.8 |
| 20260504014510 | 61 | 167 | 2.6 | 9.6 | 0.00 | 0.02 | 0.02 | 42 | 1006.6 |
| 20260504014011 | 61 | 197 | 3.5 | 7.8 | 0.00 | 0.02 | 0.02 | 42 | 1005.8 |
| 20260504013008 | 61 | 212 | 3.5 | 7.8 | 0.00 | 0.02 | 0.02 | 41 | 1006.5 |
| 20260504012406 | 62 | 194 | 3.5 | 7.0 | 0.00 | 0.02 | 0.02 | 41 | 1005.6 |
| 20260504011507 | 63 | 207 | 3.5 | 8.7 | 0.00 | 0.02 | 0.02 | 39 | 1006.4 |
| 20260504011336 | 64 | 187 | 3.5 | 7.8 | 0.00 | 0.02 | 0.02 | 40 | 1005.6 |
| 20260504010813 | 64 | 186 | 3.5 | 9.6 | 0.00 | 0.02 | 0.02 | 38 | 1005.6 |
| 20260504010020 | 64 | 221 | 3.5 | 9.6 | 0.00 | 0.02 | 0.02 | 37 | 1006.5 |
| 20260504005738 | 65 | 198 | 5.2 | 9.6 | 0.00 | 0.02 | 0.02 | 38 | 1005.8 |
| 20260504005204 | 65 | 231 | 5.2 | 9.6 | 0.00 | 0.02 | 0.02 | 37 | 1005.8 |
| 20260504004700 | 65 | 203 | 5.2 | 9.6 | 0.00 | 0.02 | 0.02 | 37 | 1005.6 |
| 20260504004524 | 65 | 244 | 4.3 | 10.4 | 0.00 | 0.02 | 0.02 | 36 | 1006.6 |
| 20260504003635 | 66 | 149 | 4.3 | 11.3 | 0.00 | 0.02 | 0.02 | 36 | 1005.8 |
| 20260504003107 | 66 | 238 | 4.3 | 11.3 | 0.00 | 0.02 | 0.02 | 35 | 1005.8 |
| 20260504003013 | 66 | 178 | 3.5 | 12.2 | 0.00 | 0.02 | 0.02 | 35 | 1006.7 |
| 20260504002605 | 67 | 206 | 5.2 | 13.0 | 0.00 | 0.02 | 0.02 | 35 | 1005.8 |
| 20260504002036 | 67 | 184 | 6.1 | 13.0 | 0.00 | 0.02 | 0.02 | 35 | 1005.8 |
| 20260504001529 | 67 | 165 | 7.0 | 14.8 | 0.00 | 0.02 | 0.02 | 34 | 1006.6 |
| 20260504001458 | 67 | 236 | 7.0 | 14.8 | 0.00 | 0.02 | 0.02 | 34 | 1005.8 |
| 20260504000016 | 67 | 225 | 7.0 | 18.2 | 0.00 | 0.02 | 0.02 | 33 | 1006.6 |
| 20260503234909 | 68 | 223 | 7.0 | 14.8 | 0.00 | 0.02 | 0.02 | 32 | 1005.6 |
| 20260503234516 | 68 | 196 | 7.8 | 15.6 | 0.00 | 0.02 | 0.02 | 32 | 1006.5 |
| 20260503234351 | 68 | 215 | 8.7 | 17.4 | 0.00 | 0.02 | 0.02 | 32 | 1005.6 |
| 20260503233854 | 68 | 240 | 8.7 | 17.4 | 0.00 | 0.02 | 0.02 | 32 | 1005.6 |
| 20260503233328 | 68 | 257 | 10.4 | 19.1 | 0.00 | 0.02 | 0.02 | 32 | 1005.8 |
| 20260503233012 | 68 | 234 | 7.8 | 21.7 | 0.00 | 0.02 | 0.02 | 31 | 1006.5 |
| 20260503232755 | 69 | 202 | 10.4 | 20.9 | 0.00 | 0.02 | 0.02 | 31 | 1005.6 |
| 20260503232253 | 69 | 219 | 8.7 | 17.4 | 0.00 | 0.02 | 0.02 | 32 | 1005.8 |
| 20260503231750 | 69 | 218 | 7.0 | 17.4 | 0.00 | 0.02 | 0.02 | 32 | 1005.6 |
| 20260503231516 | 68 | 229 | 7.0 | 16.5 | 0.00 | 0.02 | 0.02 | 30 | 1006.5 |
| 20260503231242 | 69 | 214 | 6.1 | 14.8 | 0.00 | 0.02 | 0.02 | 30 | 1005.8 |
| 20260503230719 | 69 | 239 | 7.0 | 14.8 | 0.00 | 0.02 | 0.02 | 31 | 1005.8 |
| 20260503230146 | 69 | 236 | 6.1 | 14.8 | 0.00 | 0.02 | 0.02 | 31 | 1005.9 |
| 20260503230022 | 69 | 205 | 7.8 | 13.9 | 0.00 | 0.02 | 0.02 | 31 | 1006.6 |
| 20260503225649 | 69 | 239 | 7.0 | 14.8 | 0.00 | 0.02 | 0.02 | 31 | 1005.8 |
| 20260503225120 | 69 | 209 | 7.8 | 15.6 | 0.00 | 0.02 | 0.02 | 30 | 1005.9 |
| 20260503224619 | 69 | 236 | 7.0 | 15.6 | 0.00 | 0.02 | 0.02 | 30 | 1005.9 |
| 20260503224504 | 69 | 221 | 8.7 | 15.6 | 0.00 | 0.02 | 0.02 | 30 | 1006.7 |
| 20260503224103 | 69 | 213 | 7.0 | 15.6 | 0.00 | 0.02 | 0.02 | 31 | 1005.8 |
| 20260503223606 | 69 | 230 | 7.0 | 15.6 | 0.00 | 0.02 | 0.02 | 30 | 1005.9 |
| 20260503223031 | 69 | 226 | 7.0 | 16.5 | 0.00 | 0.02 | 0.02 | 31 | 1005.8 |
| 20260503223007 | 69 | 269 | 5.2 | 17.4 | 0.00 | 0.02 | 0.02 | 30 | 1006.7 |
| 20260503222528 | 69 | 228 | 7.8 | 16.5 | 0.00 | 0.02 | 0.02 | 30 | 1005.9 |
| 20260503222003 | 69 | 207 | 7.8 | 20.9 | 0.00 | 0.02 | 0.02 | 30 | 1005.9 |
| 20260503221512 | 69 | 234 | 6.1 | 20.9 | 0.00 | 0.02 | 0.02 | 30 | 1006.6 |
| 20260503221440 | 70 | 236 | 7.8 | 20.9 | 0.00 | 0.02 | 0.02 | 30 | 1005.8 |
| 20260503220406 | 70 | 250 | 8.7 | 17.4 | 0.00 | 0.02 | 0.02 | 30 | 1006.0 |
| 20260503220012 | 69 | 211 | 7.0 | 17.4 | 0.00 | 0.02 | 0.02 | 30 | 1006.9 |
| 20260503215326 | 70 | 213 | 8.7 | 19.1 | 0.00 | 0.02 | 0.02 | 29 | 1006.1 |
| 20260503214809 | 70 | 220 | 8.7 | 16.5 | 0.00 | 0.02 | 0.02 | 29 | 1006.1 |
| 20260503214507 | 70 | 221 | 9.6 | 15.6 | 0.00 | 0.02 | 0.02 | 28 | 1006.9 |
| 20260503214240 | 70 | 220 | 7.8 | 17.4 | 0.00 | 0.02 | 0.02 | 29 | 1006.1 |
| 20260503213739 | 70 | 197 | 8.7 | 18.2 | 0.00 | 0.02 | 0.02 | 30 | 1006.2 |
| 20260503213005 | 70 | 242 | 7.8 | 20.0 | 0.00 | 0.02 | 0.02 | 30 | 1006.9 |
| 20260503212709 | 71 | 288 | 9.6 | 19.1 | 0.00 | 0.02 | 0.02 | 29 | 1006.2 |
| 20260503212133 | 71 | 296 | 8.7 | 20.0 | 0.00 | 0.02 | 0.02 | 28 | 1006.2 |
| 20260503211624 | 71 | 227 | 7.8 | 20.0 | 0.00 | 0.02 | 0.02 | 28 | 1006.2 |
| 20260503211504 | 71 | 214 | 7.8 | 17.4 | 0.00 | 0.02 | 0.02 | 28 | 1007.0 |
| 20260503210122 | 71 | 279 | 8.7 | 19.1 | 0.00 | 0.02 | 0.02 | 28 | 1006.3 |
| 20260503210006 | 70 | 213 | 7.8 | 20.0 | 0.00 | 0.02 | 0.02 | 27 | 1007.1 |
| 20260503205553 | 71 | 231 | 8.7 | 20.9 | 0.00 | 0.02 | 0.02 | 27 | 1006.5 |
| 20260503204524 | 71 | 245 | 10.4 | 22.6 | 0.00 | 0.02 | 0.02 | 29 | 1006.5 |
| 20260503204504 | 70 | 232 | 7.8 | 22.6 | 0.00 | 0.02 | 0.02 | 29 | 1007.3 |
| 20260503204027 | 71 | 232 | 8.7 | 22.6 | 0.00 | 0.02 | 0.02 | 27 | 1006.7 |
| 20260503203453 | 71 | 227 | 8.7 | 19.1 | 0.00 | 0.02 | 0.02 | 29 | 1006.6 |
| 20260503203006 | 70 | 218 | 9.6 | 20.9 | 0.00 | 0.02 | 0.02 | 28 | 1007.6 |
| 20260503202950 | 71 | 183 | 11.3 | 22.6 | 0.00 | 0.02 | 0.02 | 29 | 1006.8 |
| 20260503201945 | 70 | 226 | 10.4 | 27.8 | 0.00 | 0.02 | 0.02 | 28 | 1006.8 |
| 20260503201508 | 70 | 259 | 7.0 | 22.6 | 0.00 | 0.02 | 0.02 | 28 | 1007.6 |
| 20260503200349 | 69 | 211 | 11.3 | 25.2 | 0.00 | 0.02 | 0.02 | 29 | 1007.2 |
| 20260503200008 | 68 | 186 | 9.6 | 20.9 | 0.00 | 0.02 | 0.02 | 28 | 1007.9 |
| 20260503195851 | 69 | 202 | 10.4 | 21.7 | 0.00 | 0.02 | 0.02 | 29 | 1007.2 |
| 20260503195346 | 69 | 234 | 11.3 | 20.9 | 0.00 | 0.02 | 0.02 | 29 | 1007.3 |
| 20260503194838 | 69 | 219 | 11.3 | 20.9 | 0.00 | 0.02 | 0.02 | 29 | 1007.4 |
| 20260503194508 | 68 | 216 | 12.2 | 20.9 | 0.00 | 0.02 | 0.02 | 29 | 1008.1 |
| 20260503193840 | 69 | 183 | 11.3 | 23.5 | 0.00 | 0.02 | 0.02 | 29 | 1007.4 |
| 20260503193307 | 68 | 204 | 11.3 | 23.5 | 0.00 | 0.02 | 0.02 | 29 | 1007.7 |
| 20260503193006 | 68 | 185 | 13.9 | 23.5 | 0.00 | 0.02 | 0.02 | 29 | 1008.4 |
| 20260503192805 | 68 | 218 | 10.4 | 23.5 | 0.00 | 0.02 | 0.02 | 30 | 1007.7 |
| 20260503192259 | 67 | 183 | 11.3 | 23.5 | 0.00 | 0.02 | 0.02 | 32 | 1007.8 |
| 20260503191505 | 66 | 209 | 12.2 | 28.7 | 0.00 | 0.02 | 0.02 | 30 | 1008.8 |
| 20260503191229 | 66 | 219 | 13.0 | 25.2 | 0.00 | 0.02 | 0.02 | 30 | 1008.1 |
| 20260503190659 | 66 | 186 | 13.0 | 25.2 | 0.00 | 0.02 | 0.02 | 30 | 1008.1 |
| 20260503190158 | 67 | 203 | 12.2 | 23.5 | 0.00 | 0.02 | 0.02 | 30 | 1008.2 |
| 20260503190016 | 66 | 212 | 12.2 | 23.5 | 0.00 | 0.02 | 0.02 | 29 | 1009.0 |
| 20260503185632 | 67 | 160 | 13.0 | 29.5 | 0.00 | 0.02 | 0.02 | 30 | 1008.2 |
| 20260503185108 | 67 | 185 | 13.9 | 29.5 | 0.00 | 0.02 | 0.02 | 29 | 1008.4 |
| 20260503184602 | 67 | 181 | 13.0 | 25.2 | 0.00 | 0.02 | 0.02 | 29 | 1008.4 |
| 20260503184516 | 66 | 175 | 13.9 | 29.5 | 0.00 | 0.02 | 0.02 | 30 | 1009.2 |
| 20260503184039 | 66 | 214 | 12.2 | 25.2 | 0.00 | 0.02 | 0.02 | 30 | 1008.4 |
| 20260503183538 | 66 | 165 | 13.9 | 26.9 | 0.00 | 0.02 | 0.02 | 30 | 1008.8 |
| 20260503183012 | 65 | 205 | 14.8 | 26.9 | 0.00 | 0.02 | 0.02 | 28 | 1009.6 |
| 20260503182502 | 65 | 173 | 13.0 | 25.2 | 0.00 | 0.02 | 0.02 | 30 | 1008.8 |
| 20260503181517 | 64 | 221 | 14.8 | 29.5 | 0.00 | 0.02 | 0.02 | 33 | 1009.9 |
| 20260503181430 | 65 | 176 | 14.8 | 28.7 | 0.00 | 0.02 | 0.02 | 33 | 1009.0 |
| 20260503180929 | 64 | 199 | 14.8 | 28.7 | 0.00 | 0.02 | 0.02 | 33 | 1009.1 |
| 20260503180421 | 64 | 162 | 13.9 | 22.6 | 0.00 | 0.02 | 0.02 | 33 | 1009.1 |
| 20260503180014 | 64 | 173 | 14.8 | 25.2 | 0.00 | 0.02 | 0.02 | 33 | 1009.9 |
| 20260503175358 | 64 | 142 | 13.0 | 23.5 | 0.00 | 0.02 | 0.02 | 35 | 1009.2 |
| 20260503174842 | 63 | 184 | 13.9 | 23.5 | 0.00 | 0.02 | 0.02 | 38 | 1009.2 |
| 20260503174514 | 62 | 168 | 14.8 | 29.5 | 0.00 | 0.02 | 0.02 | 36 | 1010.1 |
| 20260503174318 | 62 | 176 | 13.9 | 25.2 | 0.00 | 0.02 | 0.02 | 38 | 1009.3 |
| 20260503173809 | 62 | 186 | 13.9 | 25.2 | 0.00 | 0.02 | 0.02 | 38 | 1009.4 |
| 20260503173251 | 62 | 176 | 14.8 | 22.6 | 0.00 | 0.02 | 0.02 | 40 | 1009.6 |
| 20260503173016 | 61 | 218 | 15.6 | 26.9 | 0.00 | 0.02 | 0.02 | 38 | 1010.2 |
| 20260503172740 | 61 | 173 | 14.8 | 23.5 | 0.00 | 0.02 | 0.02 | 42 | 1009.6 |
| 20260503172232 | 61 | 186 | 14.8 | 23.5 | 0.00 | 0.02 | 0.02 | 41 | 1009.9 |
| 20260503171707 | 60 | 157 | 13.9 | 21.7 | 0.00 | 0.02 | 0.02 | 42 | 1009.9 |
| 20260503171524 | 60 | 180 | 17.4 | 25.2 | 0.00 | 0.02 | 0.02 | 41 | 1010.7 |
| 20260503170616 | 59 | 178 | 11.3 | 19.1 | 0.00 | 0.02 | 0.02 | 43 | 1010.3 |